Macclesfield, United Kingdom
Current Conditions -  °F | °C
As of 8:20 AM on Friday 31 Oct 2014 (Local Time) from EGCC Reporting Station
Clear Clear  
Wind Chill: 16°   Ceiling: Unl
Heat Index: 16°   Visibility: 6mi
Dew Point: 14°   Wind: 9mph
Humidity: 88%   Direction: 170°S
Pressure: 29.91"   Gusts: NA
Location:  53.26°N, 2.13°W
Report Text: EGCC 310820Z 17008KT 9000 NSC 16/14 Q1013
Loading
Personal Weather Stations






























Interactive Weather Map
Tropical Storm Tracking
New forecast layout! Learn more

10-Day Weather Forecast

Advertisements
Track Severe Weather on mobile